sensor_id;sensor_type;location;lat;lon;timestamp;temperature;humidity
70170;DHT22;57543;45.442;9.212;2023-05-10T00:02:02;16.48;83.06
70170;DHT22;57543;45.442;9.212;2023-05-10T00:05:06;16.33;83.36
70170;DHT22;57543;45.442;9.212;2023-05-10T00:08:10;16.55;83.38
70170;DHT22;57543;45.442;9.212;2023-05-10T00:11:13;16.52;83.03
70170;DHT22;57543;45.442;9.212;2023-05-10T00:14:16;16.52;82.81
70170;DHT22;57543;45.442;9.212;2023-05-10T00:17:20;16.12;84.05
70170;DHT22;57543;45.442;9.212;2023-05-10T00:20:24;16.28;84.13
70170;DHT22;57543;45.442;9.212;2023-05-10T00:23:27;16.63;83.28
70170;DHT22;57543;45.442;9.212;2023-05-10T00:26:31;17.00;82.47
70170;DHT22;57543;45.442;9.212;2023-05-10T00:29:35;16.77;81.90
70170;DHT22;57543;45.442;9.212;2023-05-10T00:32:39;16.77;82.10
70170;DHT22;57543;45.442;9.212;2023-05-10T00:35:42;16.57;82.80
70170;DHT22;57543;45.442;9.212;2023-05-10T00:38:46;16.42;82.51
70170;DHT22;57543;45.442;9.212;2023-05-10T00:41:50;16.31;83.42
70170;DHT22;57543;45.442;9.212;2023-05-10T00:44:54;16.29;82.66
70170;DHT22;57543;45.442;9.212;2023-05-10T00:48:02;15.98;83.44
70170;DHT22;57543;45.442;9.212;2023-05-10T00:51:07;16.20;82.59
70170;DHT22;57543;45.442;9.212;2023-05-10T00:54:12;16.07;82.73
70170;DHT22;57543;45.442;9.212;2023-05-10T00:57:17;16.28;82.15
70170;DHT22;57543;45.442;9.212;2023-05-10T01:00:21;16.26;81.66
70170;DHT22;57543;45.442;9.212;2023-05-10T01:03:25;16.45;81.16
70170;DHT22;57543;45.442;9.212;2023-05-10T01:06:29;16.62;81.01
70170;DHT22;57543;45.442;9.212;2023-05-10T01:09:33;16.57;81.12
70170;DHT22;57543;45.442;9.212;2023-05-10T01:12:39;16.85;79.97
70170;DHT22;57543;45.442;9.212;2023-05-10T01:15:43;16.83;80.07
70170;DHT22;57543;45.442;9.212;2023-05-10T01:18:48;16.91;79.75
70170;DHT22;57543;45.442;9.212;2023-05-10T01:29:28;16.91;79.70
70170;DHT22;57543;45.442;9.212;2023-05-10T01:36:08;16.93;79.75
70170;DHT22;57543;45.442;9.212;2023-05-10T01:39:41;17.12;78.66
70170;DHT22;57543;45.442;9.212;2023-05-10T01:42:51;16.94;78.80
70170;DHT22;57543;45.442;9.212;2023-05-10T01:46:03;16.93;79.52
70170;DHT22;57543;45.442;9.212;2023-05-10T01:49:23;16.91;79.74
70170;DHT22;57543;45.442;9.212;2023-05-10T01:52:37;17.00;79.47
70170;DHT22;57543;45.442;9.212;2023-05-10T01:55:46;17.08;79.49
70170;DHT22;57543;45.442;9.212;2023-05-10T01:58:51;17.00;79.53
70170;DHT22;57543;45.442;9.212;2023-05-10T02:01:58;17.17;79.20
70170;DHT22;57543;45.442;9.212;2023-05-10T02:05:07;16.93;79.51
70170;DHT22;57543;45.442;9.212;2023-05-10T02:08:11;16.99;79.31
70170;DHT22;57543;45.442;9.212;2023-05-10T02:11:17;16.88;78.83
70170;DHT22;57543;45.442;9.212;2023-05-10T02:14:21;16.88;79.84
70170;DHT22;57543;45.442;9.212;2023-05-10T02:17:28;16.74;79.88
70170;DHT22;57543;45.442;9.212;2023-05-10T02:20:33;16.99;79.10
70170;DHT22;57543;45.442;9.212;2023-05-10T02:23:38;17.04;78.66
70170;DHT22;57543;45.442;9.212;2023-05-10T02:26:44;17.15;78.22
70170;DHT22;57543;45.442;9.212;2023-05-10T02:29:49;17.11;78.52
70170;DHT22;57543;45.442;9.212;2023-05-10T02:32:54;17.28;78.11
70170;DHT22;57543;45.442;9.212;2023-05-10T02:36:01;17.36;77.99
70170;DHT22;57543;45.442;9.212;2023-05-10T02:39:05;17.42;77.70
70170;DHT22;57543;45.442;9.212;2023-05-10T02:42:17;17.19;77.60
70170;DHT22;57543;45.442;9.212;2023-05-10T02:45:26;17.27;77.49
70170;DHT22;57543;45.442;9.212;2023-05-10T02:48:31;17.35;77.09
70170;DHT22;57543;45.442;9.212;2023-05-10T02:51:37;17.43;76.87
70170;DHT22;57543;45.442;9.212;2023-05-10T02:54:45;17.47;76.52
70170;DHT22;57543;45.442;9.212;2023-05-10T02:57:52;17.31;77.01
70170;DHT22;57543;45.442;9.212;2023-05-10T03:00:59;17.32;77.11
70170;DHT22;57543;45.442;9.212;2023-05-10T03:04:03;17.31;76.90
70170;DHT22;57543;45.442;9.212;2023-05-10T03:07:07;17.36;76.77
70170;DHT22;57543;45.442;9.212;2023-05-10T03:10:12;17.43;76.51
70170;DHT22;57543;45.442;9.212;2023-05-10T03:13:42;17.50;76.18
70170;DHT22;57543;45.442;9.212;2023-05-10T03:18:09;17.46;76.15
70170;DHT22;57543;45.442;9.212;2023-05-10T03:20:49;17.49;75.98
70170;DHT22;57543;45.442;9.212;2023-05-10T03:24:05;17.52;75.78
70170;DHT22;57543;45.442;9.212;2023-05-10T03:27:11;17.34;76.20
70170;DHT22;57543;45.442;9.212;2023-05-10T03:30:19;17.28;76.41
70170;DHT22;57543;45.442;9.212;2023-05-10T03:33:23;17.22;76.00
70170;DHT22;57543;45.442;9.212;2023-05-10T03:36:27;17.28;76.05
70170;DHT22;57543;45.442;9.212;2023-05-10T03:39:32;17.27;76.11
70170;DHT22;57543;45.442;9.212;2023-05-10T03:42:37;17.32;75.90
70170;DHT22;57543;45.442;9.212;2023-05-10T03:45:40;17.31;76.16
70170;DHT22;57543;45.442;9.212;2023-05-10T03:48:44;17.24;76.50
70170;DHT22;57543;45.442;9.212;2023-05-10T03:51:47;17.21;76.42
70170;DHT22;57543;45.442;9.212;2023-05-10T03:54:51;17.04;76.73
70170;DHT22;57543;45.442;9.212;2023-05-10T03:57:55;17.12;76.36
70170;DHT22;57543;45.442;9.212;2023-05-10T04:01:00;17.07;76.13
70170;DHT22;57543;45.442;9.212;2023-05-10T04:04:04;16.95;76.48
70170;DHT22;57543;45.442;9.212;2023-05-10T04:07:08;17.08;76.33
70170;DHT22;57543;45.442;9.212;2023-05-10T04:10:13;17.03;76.20
70170;DHT22;57543;45.442;9.212;2023-05-10T04:13:17;17.11;76.24
70170;DHT22;57543;45.442;9.212;2023-05-10T04:16:20;17.04;76.52
70170;DHT22;57543;45.442;9.212;2023-05-10T04:19:23;17.15;76.03
70170;DHT22;57543;45.442;9.212;2023-05-10T04:22:27;17.04;75.66
70170;DHT22;57543;45.442;9.212;2023-05-10T04:25:34;17.11;75.71
70170;DHT22;57543;45.442;9.212;2023-05-10T04:28:38;17.07;75.82
70170;DHT22;57543;45.442;9.212;2023-05-10T04:31:42;17.06;75.35
70170;DHT22;57543;45.442;9.212;2023-05-10T04:34:45;16.83;76.05
70170;DHT22;57543;45.442;9.212;2023-05-10T04:37:49;16.88;76.33
70170;DHT22;57543;45.442;9.212;2023-05-10T04:40:53;16.97;76.20
70170;DHT22;57543;45.442;9.212;2023-05-10T04:43:57;16.93;76.30
70170;DHT22;57543;45.442;9.212;2023-05-10T04:47:00;17.03;75.74
70170;DHT22;57543;45.442;9.212;2023-05-10T04:50:05;17.06;75.70
70170;DHT22;57543;45.442;9.212;2023-05-10T04:53:09;16.87;75.88
70170;DHT22;57543;45.442;9.212;2023-05-10T04:56:13;16.79;76.48
70170;DHT22;57543;45.442;9.212;2023-05-10T04:59:17;16.87;76.68
70170;DHT22;57543;45.442;9.212;2023-05-10T05:02:20;16.62;77.23
70170;DHT22;57543;45.442;9.212;2023-05-10T05:05:23;15.87;78.66
70170;DHT22;57543;45.442;9.212;2023-05-10T05:08:27;15.53;80.43
70170;DHT22;57543;45.442;9.212;2023-05-10T05:11:31;15.46;80.96
70170;DHT22;57543;45.442;9.212;2023-05-10T05:14:34;15.48;81.32
70170;DHT22;57543;45.442;9.212;2023-05-10T05:17:37;15.38;81.98
70170;DHT22;57543;45.442;9.212;2023-05-10T05:20:41;15.14;82.89
70170;DHT22;57543;45.442;9.212;2023-05-10T05:23:45;15.32;82.33
70170;DHT22;57543;45.442;9.212;2023-05-10T05:26:49;15.50;81.49
70170;DHT22;57543;45.442;9.212;2023-05-10T05:29:53;15.38;81.61
70170;DHT22;57543;45.442;9.212;2023-05-10T05:32:57;15.21;81.90
70170;DHT22;57543;45.442;9.212;2023-05-10T05:36:04;15.03;83.07
70170;DHT22;57543;45.442;9.212;2023-05-10T05:39:08;15.08;82.85
70170;DHT22;57543;45.442;9.212;2023-05-10T05:42:12;15.35;82.40
70170;DHT22;57543;45.442;9.212;2023-05-10T05:45:16;15.22;82.12
70170;DHT22;57543;45.442;9.212;2023-05-10T05:48:20;14.98;82.86
70170;DHT22;57543;45.442;9.212;2023-05-10T05:51:24;15.12;82.57
70170;DHT22;57543;45.442;9.212;2023-05-10T05:54:28;15.08;82.31
70170;DHT22;57543;45.442;9.212;2023-05-10T05:57:31;15.38;81.81
70170;DHT22;57543;45.442;9.212;2023-05-10T06:00:35;15.36;81.59
70170;DHT22;57543;45.442;9.212;2023-05-10T06:03:39;15.22;81.89
70170;DHT22;57543;45.442;9.212;2023-05-10T06:06:42;15.18;82.73
70170;DHT22;57543;45.442;9.212;2023-05-10T06:09:46;15.30;82.33
70170;DHT22;57543;45.442;9.212;2023-05-10T06:12:49;15.35;82.26
70170;DHT22;57543;45.442;9.212;2023-05-10T06:15:52;15.76;81.30
70170;DHT22;57543;45.442;9.212;2023-05-10T06:18:56;16.05;80.89
70170;DHT22;57543;45.442;9.212;2023-05-10T06:21:59;16.31;79.64
70170;DHT22;57543;45.442;9.212;2023-05-10T06:25:03;15.66;81.21
70170;DHT22;57543;45.442;9.212;2023-05-10T06:28:07;15.41;82.28
70170;DHT22;57543;45.442;9.212;2023-05-10T06:31:10;15.58;81.64
70170;DHT22;57543;45.442;9.212;2023-05-10T06:34:15;15.43;80.95
70170;DHT22;57543;45.442;9.212;2023-05-10T06:37:19;15.62;81.08
70170;DHT22;57543;45.442;9.212;2023-05-10T06:40:23;15.49;80.71
70170;DHT22;57543;45.442;9.212;2023-05-10T06:43:27;15.25;82.04
70170;DHT22;57543;45.442;9.212;2023-05-10T06:46:32;15.14;81.99
70170;DHT22;57543;45.442;9.212;2023-05-10T06:49:36;15.05;82.49
70170;DHT22;57543;45.442;9.212;2023-05-10T06:52:40;15.10;82.14
70170;DHT22;57543;45.442;9.212;2023-05-10T06:55:44;15.07;82.71
70170;DHT22;57543;45.442;9.212;2023-05-10T06:58:48;15.08;82.60
70170;DHT22;57543;45.442;9.212;2023-05-10T07:01:51;14.98;82.43
70170;DHT22;57543;45.442;9.212;2023-05-10T07:04:55;14.94;82.92
70170;DHT22;57543;45.442;9.212;2023-05-10T07:07:59;14.96;82.48
70170;DHT22;57543;45.442;9.212;2023-05-10T07:11:04;14.86;82.63
70170;DHT22;57543;45.442;9.212;2023-05-10T07:14:08;14.77;82.32
70170;DHT22;57543;45.442;9.212;2023-05-10T07:17:11;14.68;82.83
70170;DHT22;57543;45.442;9.212;2023-05-10T07:20:16;14.79;81.87
70170;DHT22;57543;45.442;9.212;2023-05-10T07:23:20;14.77;81.82
70170;DHT22;57543;45.442;9.212;2023-05-10T07:26:29;14.88;81.55
70170;DHT22;57543;45.442;9.212;2023-05-10T07:29:36;15.22;80.83
70170;DHT22;57543;45.442;9.212;2023-05-10T07:32:41;15.49;80.24
70170;DHT22;57543;45.442;9.212;2023-05-10T07:35:44;15.69;79.52
70170;DHT22;57543;45.442;9.212;2023-05-10T07:38:48;15.94;78.65
70170;DHT22;57543;45.442;9.212;2023-05-10T07:41:53;15.97;78.66
70170;DHT22;57543;45.442;9.212;2023-05-10T07:44:57;16.05;78.55
70170;DHT22;57543;45.442;9.212;2023-05-10T07:48:00;16.35;77.85
70170;DHT22;57543;45.442;9.212;2023-05-10T07:51:04;16.31;78.37
70170;DHT22;57543;45.442;9.212;2023-05-10T07:54:08;16.18;77.84
70170;DHT22;57543;45.442;9.212;2023-05-10T07:57:11;16.22;78.85
70170;DHT22;57543;45.442;9.212;2023-05-10T08:00:18;16.36;78.33
70170;DHT22;57543;45.442;9.212;2023-05-10T08:03:22;16.42;77.95
70170;DHT22;57543;45.442;9.212;2023-05-10T08:06:25;16.45;77.63
70170;DHT22;57543;45.442;9.212;2023-05-10T08:09:33;16.69;76.94
70170;DHT22;57543;45.442;9.212;2023-05-10T08:12:37;16.60;75.27
70170;DHT22;57543;45.442;9.212;2023-05-10T08:15:41;16.55;75.87
70170;DHT22;57543;45.442;9.212;2023-05-10T08:18:46;16.60;75.24
70170;DHT22;57543;45.442;9.212;2023-05-10T08:21:49;16.80;75.01
70170;DHT22;57543;45.442;9.212;2023-05-10T08:24:53;16.69;75.85
70170;DHT22;57543;45.442;9.212;2023-05-10T08:27:57;16.59;77.85
70170;DHT22;57543;45.442;9.212;2023-05-10T08:31:00;16.77;76.60
70170;DHT22;57543;45.442;9.212;2023-05-10T08:34:04;16.73;74.44
70170;DHT22;57543;45.442;9.212;2023-05-10T08:37:08;16.85;74.09
70170;DHT22;57543;45.442;9.212;2023-05-10T08:40:14;16.94;74.12
70170;DHT22;57543;45.442;9.212;2023-05-10T08:43:18;17.06;73.71
70170;DHT22;57543;45.442;9.212;2023-05-10T08:46:22;17.11;73.31
70170;DHT22;57543;45.442;9.212;2023-05-10T08:49:27;17.04;73.53
70170;DHT22;57543;45.442;9.212;2023-05-10T08:52:32;17.15;73.41
70170;DHT22;57543;45.442;9.212;2023-05-10T08:55:37;17.12;74.08
70170;DHT22;57543;45.442;9.212;2023-05-10T08:58:42;16.97;74.11
70170;DHT22;57543;45.442;9.212;2023-05-10T09:01:47;16.84;74.78
70170;DHT22;57543;45.442;9.212;2023-05-10T09:04:53;17.12;74.86
70170;DHT22;57543;45.442;9.212;2023-05-10T09:07:56;17.06;73.86
70170;DHT22;57543;45.442;9.212;2023-05-10T09:11:00;16.69;74.63
70170;DHT22;57543;45.442;9.212;2023-05-10T09:14:05;16.65;75.30
70170;DHT22;57543;45.442;9.212;2023-05-10T09:17:09;16.69;74.79
70170;DHT22;57543;45.442;9.212;2023-05-10T09:20:13;16.66;74.32
70170;DHT22;57543;45.442;9.212;2023-05-10T09:23:16;16.79;74.88
70170;DHT22;57543;45.442;9.212;2023-05-10T09:26:23;16.90;74.49
70170;DHT22;57543;45.442;9.212;2023-05-10T09:29:38;17.04;74.10
70170;DHT22;57543;45.442;9.212;2023-05-10T09:32:47;17.06;73.45
70170;DHT22;57543;45.442;9.212;2023-05-10T09:35:51;17.11;73.17
70170;DHT22;57543;45.442;9.212;2023-05-10T09:38:55;17.25;71.75
70170;DHT22;57543;45.442;9.212;2023-05-10T09:42:04;17.32;72.20
70170;DHT22;57543;45.442;9.212;2023-05-10T09:45:08;17.40;71.81
70170;DHT22;57543;45.442;9.212;2023-05-10T09:48:12;17.36;72.79
70170;DHT22;57543;45.442;9.212;2023-05-10T09:51:23;17.59;71.83
70170;DHT22;57543;45.442;9.212;2023-05-10T09:54:27;17.49;70.22
70170;DHT22;57543;45.442;9.212;2023-05-10T09:57:31;17.50;71.45
70170;DHT22;57543;45.442;9.212;2023-05-10T10:00:39;17.74;71.52
70170;DHT22;57543;45.442;9.212;2023-05-10T10:03:44;17.55;71.53
70170;DHT22;57543;45.442;9.212;2023-05-10T10:06:59;17.57;72.65
70170;DHT22;57543;45.442;9.212;2023-05-10T10:10:03;17.69;71.82
70170;DHT22;57543;45.442;9.212;2023-05-10T10:13:08;17.73;70.90
70170;DHT22;57543;45.442;9.212;2023-05-10T10:16:12;17.89;70.58
70170;DHT22;57543;45.442;9.212;2023-05-10T10:19:15;17.66;71.05
70170;DHT22;57543;45.442;9.212;2023-05-10T10:22:20;17.43;71.14
70170;DHT22;57543;45.442;9.212;2023-05-10T10:25:24;17.32;72.36
70170;DHT22;57543;45.442;9.212;2023-05-10T10:32:12;17.31;70.47
70170;DHT22;57543;45.442;9.212;2023-05-10T10:35:20;17.12;70.32
70170;DHT22;57543;45.442;9.212;2023-05-10T10:38:24;17.15;71.14
70170;DHT22;57543;45.442;9.212;2023-05-10T10:41:36;17.34;70.90
70170;DHT22;57543;45.442;9.212;2023-05-10T10:44:39;17.04;71.04
70170;DHT22;57543;45.442;9.212;2023-05-10T10:47:44;16.42;73.15
70170;DHT22;57543;45.442;9.212;2023-05-10T10:50:56;16.93;72.72
70170;DHT22;57543;45.442;9.212;2023-05-10T10:54:11;16.66;73.16
70170;DHT22;57543;45.442;9.212;2023-05-10T10:57:14;16.79;73.39
70170;DHT22;57543;45.442;9.212;2023-05-10T11:03:22;16.74;72.12
70170;DHT22;57543;45.442;9.212;2023-05-10T11:06:33;17.03;70.66
70170;DHT22;57543;45.442;9.212;2023-05-10T11:09:39;17.21;70.34
70170;DHT22;57543;45.442;9.212;2023-05-10T11:13:00;17.18;69.72
70170;DHT22;57543;45.442;9.212;2023-05-10T11:16:23;17.50;68.95
70170;DHT22;57543;45.442;9.212;2023-05-10T11:19:27;17.56;68.97
70170;DHT22;57543;45.442;9.212;2023-05-10T11:22:49;17.35;68.77
70170;DHT22;57543;45.442;9.212;2023-05-10T11:25:53;17.46;68.54
70170;DHT22;57543;45.442;9.212;2023-05-10T11:28:58;17.46;69.01
70170;DHT22;57543;45.442;9.212;2023-05-10T11:32:05;17.32;69.94
70170;DHT22;57543;45.442;9.212;2023-05-10T11:35:11;16.95;70.98
70170;DHT22;57543;45.442;9.212;2023-05-10T11:38:15;17.06;70.55
70170;DHT22;57543;45.442;9.212;2023-05-10T11:41:19;17.25;70.00
70170;DHT22;57543;45.442;9.212;2023-05-10T11:44:30;17.12;70.44
70170;DHT22;57543;45.442;9.212;2023-05-10T11:47:34;16.93;70.38
70170;DHT22;57543;45.442;9.212;2023-05-10T11:50:40;17.14;70.44
70170;DHT22;57543;45.442;9.212;2023-05-10T11:53:44;17.21;69.68
70170;DHT22;57543;45.442;9.212;2023-05-10T11:56:49;17.43;69.00
70170;DHT22;57543;45.442;9.212;2023-05-10T11:59:53;17.52;69.00
70170;DHT22;57543;45.442;9.212;2023-05-10T12:02:58;17.35;69.38
70170;DHT22;57543;45.442;9.212;2023-05-10T12:06:02;16.99;70.43
70170;DHT22;57543;45.442;9.212;2023-05-10T12:09:07;17.03;70.10
70170;DHT22;57543;45.442;9.212;2023-05-10T12:12:17;17.24;69.53
70170;DHT22;57543;45.442;9.212;2023-05-10T12:15:22;17.01;70.17
70170;DHT22;57543;45.442;9.212;2023-05-10T12:18:26;16.85;71.02
70170;DHT22;57543;45.442;9.212;2023-05-10T12:21:30;16.95;70.82
70170;DHT22;57543;45.442;9.212;2023-05-10T12:24:35;17.25;69.63
70170;DHT22;57543;45.442;9.212;2023-05-10T12:27:39;17.43;69.31
70170;DHT22;57543;45.442;9.212;2023-05-10T12:30:43;17.50;68.79
70170;DHT22;57543;45.442;9.212;2023-05-10T12:33:47;17.79;68.23
70170;DHT22;57543;45.442;9.212;2023-05-10T12:36:53;17.69;67.79
70170;DHT22;57543;45.442;9.212;2023-05-10T12:39:56;17.89;67.57
70170;DHT22;57543;45.442;9.212;2023-05-10T12:43:00;17.84;67.16
70170;DHT22;57543;45.442;9.212;2023-05-10T12:46:25;17.97;67.17
70170;DHT22;57543;45.442;9.212;2023-05-10T12:49:31;17.93;67.03
70170;DHT22;57543;45.442;9.212;2023-05-10T12:52:34;18.08;66.88
70170;DHT22;57543;45.442;9.212;2023-05-10T12:55:40;18.24;66.47
70170;DHT22;57543;45.442;9.212;2023-05-10T12:58:44;18.34;66.30
70170;DHT22;57543;45.442;9.212;2023-05-10T13:01:51;18.05;67.51
70170;DHT22;57543;45.442;9.212;2023-05-10T13:04:55;18.28;66.90
70170;DHT22;57543;45.442;9.212;2023-05-10T13:07:58;18.49;66.24
70170;DHT22;57543;45.442;9.212;2023-05-10T13:11:02;18.39;67.07
70170;DHT22;57543;45.442;9.212;2023-05-10T13:14:06;18.36;66.51
70170;DHT22;57543;45.442;9.212;2023-05-10T13:17:09;18.34;66.54
70170;DHT22;57543;45.442;9.212;2023-05-10T13:20:13;18.57;65.97
70170;DHT22;57543;45.442;9.212;2023-05-10T13:23:18;18.25;66.67
70170;DHT22;57543;45.442;9.212;2023-05-10T13:26:21;18.18;66.81
70170;DHT22;57543;45.442;9.212;2023-05-10T13:29:25;18.15;67.51
70170;DHT22;57543;45.442;9.212;2023-05-10T13:32:29;18.04;67.91
70170;DHT22;57543;45.442;9.212;2023-05-10T13:35:32;18.24;67.15
70170;DHT22;57543;45.442;9.212;2023-05-10T13:38:36;18.22;67.33
70170;DHT22;57543;45.442;9.212;2023-05-10T13:41:40;17.83;68.72
70170;DHT22;57543;45.442;9.212;2023-05-10T13:44:45;18.04;68.28
70170;DHT22;57543;45.442;9.212;2023-05-10T13:47:49;17.42;69.82
70170;DHT22;57543;45.442;9.212;2023-05-10T13:50:53;17.53;69.21
70170;DHT22;57543;45.442;9.212;2023-05-10T13:53:58;17.70;69.12
70170;DHT22;57543;45.442;9.212;2023-05-10T13:57:01;17.86;68.34
70170;DHT22;57543;45.442;9.212;2023-05-10T14:00:05;17.96;68.64
70170;DHT22;57543;45.442;9.212;2023-05-10T14:03:11;18.12;67.94
70170;DHT22;57543;45.442;9.212;2023-05-10T14:06:15;18.28;67.71
70170;DHT22;57543;45.442;9.212;2023-05-10T14:09:19;18.35;67.59
70170;DHT22;57543;45.442;9.212;2023-05-10T14:12:23;18.28;68.13
70170;DHT22;57543;45.442;9.212;2023-05-10T14:15:27;18.31;67.59
70170;DHT22;57543;45.442;9.212;2023-05-10T14:18:31;18.12;68.01
70170;DHT22;57543;45.442;9.212;2023-05-10T14:21:34;17.96;67.75
70170;DHT22;57543;45.442;9.212;2023-05-10T14:24:38;17.94;67.88
70170;DHT22;57543;45.442;9.212;2023-05-10T14:27:41;18.00;68.11
70170;DHT22;57543;45.442;9.212;2023-05-10T14:30:45;18.11;68.11
70170;DHT22;57543;45.442;9.212;2023-05-10T14:33:49;18.24;68.24
70170;DHT22;57543;45.442;9.212;2023-05-10T14:36:53;18.49;67.75
70170;DHT22;57543;45.442;9.212;2023-05-10T14:39:56;18.49;66.92
70170;DHT22;57543;45.442;9.212;2023-05-10T14:43:01;18.69;66.78
70170;DHT22;57543;45.442;9.212;2023-05-10T14:46:04;18.91;66.05
70170;DHT22;57543;45.442;9.212;2023-05-10T14:49:08;18.56;66.56
70170;DHT22;57543;45.442;9.212;2023-05-10T14:52:11;18.52;66.91
70170;DHT22;57543;45.442;9.212;2023-05-10T14:55:15;18.22;67.91
70170;DHT22;57543;45.442;9.212;2023-05-10T14:58:19;18.35;67.26
70170;DHT22;57543;45.442;9.212;2023-05-10T15:01:23;18.45;67.28
70170;DHT22;57543;45.442;9.212;2023-05-10T15:04:27;18.46;66.70
70170;DHT22;57543;45.442;9.212;2023-05-10T15:07:31;17.96;67.74
70170;DHT22;57543;45.442;9.212;2023-05-10T15:10:35;18.04;67.61
70170;DHT22;57543;45.442;9.212;2023-05-10T15:13:40;17.67;67.53
70170;DHT22;57543;45.442;9.212;2023-05-10T15:16:43;17.69;67.70
70170;DHT22;57543;45.442;9.212;2023-05-10T15:19:47;17.59;68.18
70170;DHT22;57543;45.442;9.212;2023-05-10T15:22:52;17.56;68.20
70170;DHT22;57543;45.442;9.212;2023-05-10T15:25:56;17.35;68.82
70170;DHT22;57543;45.442;9.212;2023-05-10T15:29:00;17.46;68.06
70170;DHT22;57543;45.442;9.212;2023-05-10T15:32:04;17.46;68.62
70170;DHT22;57543;45.442;9.212;2023-05-10T15:35:08;17.45;69.33
70170;DHT22;57543;45.442;9.212;2023-05-10T15:38:13;17.74;68.70
70170;DHT22;57543;45.442;9.212;2023-05-10T15:41:17;17.81;68.26
70170;DHT22;57543;45.442;9.212;2023-05-10T15:44:21;17.63;68.88
70170;DHT22;57543;45.442;9.212;2023-05-10T15:47:26;17.76;68.50
70170;DHT22;57543;45.442;9.212;2023-05-10T15:50:30;17.49;69.16
70170;DHT22;57543;45.442;9.212;2023-05-10T15:53:34;17.29;68.82
70170;DHT22;57543;45.442;9.212;2023-05-10T15:56:38;17.45;68.43
70170;DHT22;57543;45.442;9.212;2023-05-10T15:59:42;17.55;68.13
70170;DHT22;57543;45.442;9.212;2023-05-10T16:02:45;17.69;67.59
70170;DHT22;57543;45.442;9.212;2023-05-10T16:05:49;17.36;68.54
70170;DHT22;57543;45.442;9.212;2023-05-10T16:08:53;17.46;68.44
70170;DHT22;57543;45.442;9.212;2023-05-10T16:11:56;17.62;68.67
70170;DHT22;57543;45.442;9.212;2023-05-10T16:15:00;17.66;69.21
70170;DHT22;57543;45.442;9.212;2023-05-10T16:18:04;17.59;68.98
70170;DHT22;57543;45.442;9.212;2023-05-10T16:21:08;17.67;68.64
70170;DHT22;57543;45.442;9.212;2023-05-10T16:24:12;17.70;68.97
70170;DHT22;57543;45.442;9.212;2023-05-10T16:27:15;17.61;69.23
70170;DHT22;57543;45.442;9.212;2023-05-10T16:30:19;17.65;69.13
70170;DHT22;57543;45.442;9.212;2023-05-10T16:33:22;17.57;69.89
70170;DHT22;57543;45.442;9.212;2023-05-10T16:36:25;17.70;69.47
70170;DHT22;57543;45.442;9.212;2023-05-10T16:39:29;17.62;69.71
70170;DHT22;57543;45.442;9.212;2023-05-10T16:42:32;17.55;69.88
70170;DHT22;57543;45.442;9.212;2023-05-10T16:45:36;17.62;69.81
70170;DHT22;57543;45.442;9.212;2023-05-10T16:48:40;17.55;69.64
70170;DHT22;57543;45.442;9.212;2023-05-10T16:51:44;17.45;70.42
70170;DHT22;57543;45.442;9.212;2023-05-10T16:54:48;17.50;69.85
70170;DHT22;57543;45.442;9.212;2023-05-10T16:57:51;17.40;69.38
70170;DHT22;57543;45.442;9.212;2023-05-10T17:00:55;17.39;69.29
70170;DHT22;57543;45.442;9.212;2023-05-10T17:03:58;17.38;69.83
70170;DHT22;57543;45.442;9.212;2023-05-10T17:07:02;17.43;69.55
70170;DHT22;57543;45.442;9.212;2023-05-10T17:10:06;17.59;69.64
70170;DHT22;57543;45.442;9.212;2023-05-10T17:13:10;17.27;70.86
70170;DHT22;57543;45.442;9.212;2023-05-10T17:16:14;17.25;71.15
70170;DHT22;57543;45.442;9.212;2023-05-10T17:19:18;17.15;69.84
70170;DHT22;57543;45.442;9.212;2023-05-10T17:22:21;17.06;69.59
70170;DHT22;57543;45.442;9.212;2023-05-10T17:25:25;17.04;70.14
70170;DHT22;57543;45.442;9.212;2023-05-10T17:28:29;17.18;70.08
70170;DHT22;57543;45.442;9.212;2023-05-10T17:31:33;17.22;69.50
70170;DHT22;57543;45.442;9.212;2023-05-10T17:34:37;17.19;70.10
70170;DHT22;57543;45.442;9.212;2023-05-10T17:37:41;17.11;70.34
70170;DHT22;57543;45.442;9.212;2023-05-10T17:40:46;17.07;70.22
70170;DHT22;57543;45.442;9.212;2023-05-10T17:43:50;16.93;70.02
70170;DHT22;57543;45.442;9.212;2023-05-10T17:46:56;16.93;69.92
70170;DHT22;57543;45.442;9.212;2023-05-10T17:50:00;17.12;69.84
70170;DHT22;57543;45.442;9.212;2023-05-10T17:53:04;16.83;70.54
70170;DHT22;57543;45.442;9.212;2023-05-10T17:56:08;16.65;71.16
70170;DHT22;57543;45.442;9.212;2023-05-10T17:59:12;16.74;71.03
70170;DHT22;57543;45.442;9.212;2023-05-10T18:02:16;16.84;70.86
70170;DHT22;57543;45.442;9.212;2023-05-10T18:05:20;16.85;70.58
70170;DHT22;57543;45.442;9.212;2023-05-10T18:08:23;17.04;70.24
70170;DHT22;57543;45.442;9.212;2023-05-10T18:11:29;16.95;70.36
70170;DHT22;57543;45.442;9.212;2023-05-10T18:14:33;16.97;70.50
70170;DHT22;57543;45.442;9.212;2023-05-10T18:17:37;16.85;70.84
70170;DHT22;57543;45.442;9.212;2023-05-10T18:20:40;16.94;70.33
70170;DHT22;57543;45.442;9.212;2023-05-10T18:23:44;16.77;71.01
70170;DHT22;57543;45.442;9.212;2023-05-10T18:26:48;16.97;70.62
70170;DHT22;57543;45.442;9.212;2023-05-10T18:29:52;16.88;70.93
70170;DHT22;57543;45.442;9.212;2023-05-10T18:32:56;16.80;71.32
70170;DHT22;57543;45.442;9.212;2023-05-10T18:36:00;16.79;71.03
70170;DHT22;57543;45.442;9.212;2023-05-10T18:39:04;16.70;71.11
70170;DHT22;57543;45.442;9.212;2023-05-10T18:42:08;16.73;71.13
70170;DHT22;57543;45.442;9.212;2023-05-10T18:45:12;16.66;71.01
70170;DHT22;57543;45.442;9.212;2023-05-10T18:48:16;16.73;70.88
70170;DHT22;57543;45.442;9.212;2023-05-10T18:51:20;16.80;70.66
70170;DHT22;57543;45.442;9.212;2023-05-10T18:54:25;16.69;71.21
70170;DHT22;57543;45.442;9.212;2023-05-10T18:57:29;16.79;71.08
70170;DHT22;57543;45.442;9.212;2023-05-10T19:00:33;16.87;70.98
70170;DHT22;57543;45.442;9.212;2023-05-10T19:03:37;16.90;71.31
70170;DHT22;57543;45.442;9.212;2023-05-10T19:06:41;16.90;71.66
70170;DHT22;57543;45.442;9.212;2023-05-10T19:09:46;16.97;71.75
70170;DHT22;57543;45.442;9.212;2023-05-10T19:12:52;17.00;71.92
70170;DHT22;57543;45.442;9.212;2023-05-10T19:16:23;16.94;72.53
70170;DHT22;57543;45.442;9.212;2023-05-10T19:19:26;16.99;72.43
70170;DHT22;57543;45.442;9.212;2023-05-10T19:22:30;16.97;72.60
70170;DHT22;57543;45.442;9.212;2023-05-10T19:25:34;16.93;72.82
70170;DHT22;57543;45.442;9.212;2023-05-10T19:28:39;16.95;72.83
70170;DHT22;57543;45.442;9.212;2023-05-10T19:31:43;16.69;74.00
70170;DHT22;57543;45.442;9.212;2023-05-10T19:34:47;16.55;74.40
70170;DHT22;57543;45.442;9.212;2023-05-10T19:37:51;16.39;75.05
70170;DHT22;57543;45.442;9.212;2023-05-10T19:40:55;16.35;75.25
70170;DHT22;57543;45.442;9.212;2023-05-10T19:44:03;16.38;75.14
70170;DHT22;57543;45.442;9.212;2023-05-10T19:47:07;16.56;74.71